Time;durP1;ratioP1;P1;durP2;ratioP2;P2;SDS_P1;SDS_P2;PMS_P1;PMS_P2;Temp;Humidity;BMP_temperature;BMP_pressure;BME280_temperature;BME280_humidity;BME280_pressure;Samples;Min_cycle;Max_cycle;Signal;HPM_P1;HPM_P2
2022/12/30 00:00:11;;;;;;;;;;;;;;;5.37;86.52;96064.06;5055868;28;982;-48
2022/12/30 00:02:37;;;;;;;;;;;;;;;5.37;86.12;96064.06;5055542;28;1870;-48
2022/12/30 00:05:04;;;;;;;;;;;;;;;5.39;86.31;96065.69;5055901;28;968;-48
2022/12/30 00:07:30;;;;;;;;;;;;;;;5.44;85.79;96063.56;5055514;28;1032;-48
2022/12/30 00:09:56;;;;;;;;;;;;;;;5.46;85.68;96061.66;5055467;28;1178;-48
2022/12/30 00:34:26;;;;;;;;;;;;;;;5.31;86.50;96070.66;5055283;28;1975;-48
2022/12/30 00:36:52;;;;;;;;;;;;;;;5.44;86.08;96065.34;5055278;28;1041;-48
2022/12/30 00:39:18;;;;;;;;;;;;;;;5.32;86.15;96066.22;5054347;28;1007;-48
2022/12/30 00:44:28;;;;;;;;;;;;;;;5.22;86.72;96072.16;5054877;28;1064;-48
2022/12/30 00:46:55;;;;;;;;;;;;;;;5.22;86.49;96060.69;5054830;28;1012;-48
2022/12/30 00:57:35;;;;;;;;;;;;;;;5.11;86.25;96064.06;5074543;28;1265;-48
2022/12/30 01:00:02;;;;;;;;;;;;;;;4.99;86.83;96059.59;5074786;28;1011;-48
2022/12/30 01:02:28;;;;;;;;;;;;;;;4.91;87.33;96064.59;5074555;28;995;-48
2022/12/30 01:04:54;;;;;;;;;;;;;;;4.88;87.44;96066.50;5074595;28;1040;-48
2022/12/30 01:07:20;;;;;;;;;;;;;;;4.86;87.20;96067.56;5074353;28;1051;-48
2022/12/30 01:09:46;;;;;;;;;;;;;;;4.91;86.53;96065.44;5074363;28;1026;-48
2022/12/30 01:12:12;;;;;;;;;;;;;;;4.92;86.56;96072.44;5074534;28;999;-48
2022/12/30 01:14:42;;;;;;;;;;;;;;;4.90;86.50;96066.41;5074349;28;1917;-48
2022/12/30 01:17:09;;;;;;;;;;;;;;;4.83;85.74;96068.59;5074195;28;1099;-48
2022/12/30 01:19:36;;;;;;;;;;;;;;;4.75;85.87;96062.13;5074151;28;1071;-48
2022/12/30 01:22:02;;;;;;;;;;;;;;;4.65;85.74;96067.19;5074196;28;966;-47
2022/12/30 01:24:28;;;;;;;;;;;;;;;4.39;86.16;96069.75;5074262;28;951;-48
2022/12/30 01:26:54;;;;;;;;;;;;;;;4.26;86.90;96063.56;5074057;28;1150;-48
2022/12/30 01:29:25;;;;;;;;;;;;;;;4.34;86.82;96063.06;5073917;28;1083;-48
2022/12/30 01:31:54;;;;;;;;;;;;;;;4.29;86.93;96063.38;5074128;28;1041;-48
2022/12/30 01:34:20;;;;;;;;;;;;;;;4.22;87.05;96060.28;5073850;28;1910;-48
2022/12/30 01:36:46;;;;;;;;;;;;;;;4.23;86.62;96054.03;5073833;28;1028;-48
2022/12/30 01:39:12;;;;;;;;;;;;;;;4.18;86.39;96047.34;5074076;28;978;-48
2022/12/30 01:41:38;;;;;;;;;;;;;;;4.17;86.57;96050.94;5060080;28;1117;-48
2022/12/30 01:44:23;;;;;;;;;;;;;;;4.11;86.31;96052.19;5053783;28;1953;-48
2022/12/30 01:46:50;;;;;;;;;;;;;;;3.88;86.96;96051.88;5053843;28;1029;-48
2022/12/30 01:49:16;;;;;;;;;;;;;;;4.07;86.68;96046.22;5067692;28;1170;-48
2022/12/30 01:51:42;;;;;;;;;;;;;;;4.18;87.00;96057.94;5073478;28;1032;-48
2022/12/30 01:54:08;;;;;;;;;;;;;;;3.95;86.63;96057.63;5073731;28;2019;-48
2022/12/30 01:56:36;;;;;;;;;;;;;;;3.83;87.17;96053.09;5073527;28;1032;-48
2022/12/30 01:59:10;;;;;;;;;;;;;;;3.86;87.69;96058.22;5073684;28;1223;-48
2022/12/30 02:01:36;;;;;;;;;;;;;;;4.01;87.18;96057.22;5073568;28;969;-48
2022/12/30 02:04:05;;;;;;;;;;;;;;;4.01;86.90;96057.22;5073442;28;1032;-48
2022/12/30 02:06:39;;;;;;;;;;;;;;;3.77;87.58;96054.34;5073617;28;970;-48
2022/12/30 02:09:05;;;;;;;;;;;;;;;3.84;87.33;96049.53;5073698;28;978;-48
2022/12/30 02:11:32;;;;;;;;;;;;;;;3.98;87.22;96053.94;5073348;28;1040;-48
2022/12/30 02:13:58;;;;;;;;;;;;;;;4.08;87.84;96042.66;5073403;28;1991;-48
2022/12/30 02:16:24;;;;;;;;;;;;;;;4.00;86.63;96044.94;5073360;28;1029;-48
2022/12/30 02:18:56;;;;;;;;;;;;;;;3.78;87.28;96039.34;5073666;28;1030;-48
2022/12/30 02:21:22;;;;;;;;;;;;;;;3.79;87.49;96039.22;5073258;28;1028;-48
2022/12/30 02:23:48;;;;;;;;;;;;;;;3.92;87.17;96041.94;5073559;28;991;-48
2022/12/30 02:26:33;;;;;;;;;;;;;;;3.98;87.20;96045.97;5073396;28;1045;-48
2022/12/30 02:29:18;;;;;;;;;;;;;;;3.94;86.85;96039.19;5073232;28;999;-48
2022/12/30 02:31:53;;;;;;;;;;;;;;;4.06;86.89;96033.09;5073219;28;1083;-48
2022/12/30 02:34:37;;;;;;;;;;;;;;;4.09;86.56;96033.75;5073211;28;1913;-48
2022/12/30 02:37:22;;;;;;;;;;;;;;;4.06;86.15;96041.03;5073332;28;976;-48
2022/12/30 02:39:57;;;;;;;;;;;;;;;4.10;87.20;96046.03;5073389;28;969;-48
2022/12/30 02:45:15;;;;;;;;;;;;;;;4.03;86.71;96039.44;5073129;28;1203;-48
2022/12/30 02:47:51;;;;;;;;;;;;;;;3.88;86.44;96043.09;5071216;28;1213;-48
2022/12/30 02:53:05;;;;;;;;;;;;;;;3.68;86.78;96050.50;5052943;28;1188;-48
2022/12/30 02:55:31;;;;;;;;;;;;;;;3.71;87.64;96044.16;5052960;28;1910;-48
2022/12/30 02:57:57;;;;;;;;;;;;;;;3.75;87.32;96043.00;5052960;28;1020;-48
2022/12/30 03:06:25;;;;;;;;;;;;;;;3.35;88.33;96045.53;5056707;28;1028;-48
2022/12/30 03:09:01;;;;;;;;;;;;;;;3.36;87.88;96046.34;5056764;28;970;-48
2022/12/30 03:11:32;;;;;;;;;;;;;;;3.39;87.93;96043.53;5056569;28;1051;-48
2022/12/30 03:14:09;;;;;;;;;;;;;;;3.27;87.34;96048.63;5056672;28;1959;-48
2022/12/30 03:16:38;;;;;;;;;;;;;;;3.28;87.35;96047.72;5056619;28;975;-48
2022/12/30 03:19:13;;;;;;;;;;;;;;;3.34;87.15;96051.75;5056546;28;988;-48
2022/12/30 03:21:40;;;;;;;;;;;;;;;3.21;87.08;96050.81;5056387;28;1011;-48
2022/12/30 03:27:05;;;;;;;;;;;;;;;3.19;87.30;96047.41;5056532;28;969;-48
2022/12/30 03:29:44;;;;;;;;;;;;;;;2.99;87.49;96051.25;5056330;28;966;-48
2022/12/30 03:32:12;;;;;;;;;;;;;;;2.86;87.97;96051.16;5056325;28;1867;-48
2022/12/30 03:34:38;;;;;;;;;;;;;;;2.90;87.82;96047.38;5056259;28;1914;-48
2022/12/30 03:37:24;;;;;;;;;;;;;;;2.88;87.78;96052.78;5056356;28;973;-48
2022/12/30 03:39:56;;;;;;;;;;;;;;;2.96;87.93;96057.59;5056210;28;1022;-51
2022/12/30 03:42:22;;;;;;;;;;;;;;;2.70;87.36;96054.72;5055850;28;1082;-48
2022/12/30 03:44:49;;;;;;;;;;;;;;;2.51;88.54;96057.59;5056050;28;1024;-48
2022/12/30 03:47:15;;;;;;;;;;;;;;;2.59;89.08;96057.13;5038385;28;1028;-48
2022/12/30 03:49:42;;;;;;;;;;;;;;;2.64;88.96;96055.06;5073997;28;1146;-48
2022/12/30 03:52:14;;;;;;;;;;;;;;;2.62;88.30;96061.38;5076045;28;981;-48
2022/12/30 03:54:40;;;;;;;;;;;;;;;2.68;88.25;96066.31;5075672;28;1933;-48
2022/12/30 03:57:06;;;;;;;;;;;;;;;2.84;90.02;96059.16;5076107;28;973;-48
2022/12/30 03:59:33;;;;;;;;;;;;;;;2.90;87.94;96058.81;5075974;28;1053;-48
2022/12/30 04:01:59;;;;;;;;;;;;;;;2.99;87.47;96059.19;5075707;28;1186;-48
2022/12/30 04:04:25;;;;;;;;;;;;;;;3.01;87.82;96062.59;5075805;28;1096;-48
2022/12/30 04:06:51;;;;;;;;;;;;;;;3.00;87.48;96074.97;5075718;28;1052;-48
2022/12/30 04:09:17;;;;;;;;;;;;;;;2.77;86.33;96078.09;5075589;28;1063;-48
2022/12/30 04:11:43;;;;;;;;;;;;;;;2.66;86.28;96081.41;5075871;28;998;-48
2022/12/30 04:14:10;;;;;;;;;;;;;;;2.41;86.09;96084.59;5074564;28;2005;-48
2022/12/30 04:16:36;;;;;;;;;;;;;;;2.31;87.40;96081.63;5075614;28;1045;-48
2022/12/30 04:19:02;;;;;;;;;;;;;;;2.38;87.77;96083.00;5057806;28;1059;-48
2022/12/30 04:21:28;;;;;;;;;;;;;;;2.45;87.75;96086.16;5075430;28;1052;-48
2022/12/30 04:23:54;;;;;;;;;;;;;;;2.27;87.67;96088.88;5075340;28;1024;-48
2022/12/30 04:26:20;;;;;;;;;;;;;;;2.37;87.85;96086.56;5075173;28;1854;-48
2022/12/30 04:28:46;;;;;;;;;;;;;;;2.43;87.76;96085.34;5075475;28;976;-48
2022/12/30 04:31:12;;;;;;;;;;;;;;;2.23;86.97;96082.06;5075364;28;1109;-48
2022/12/30 04:33:38;;;;;;;;;;;;;;;2.00;87.44;96087.81;5074989;28;2042;-48
2022/12/30 04:36:04;;;;;;;;;;;;;;;1.97;88.13;96086.19;5075272;28;1041;-48
2022/12/30 04:38:31;;;;;;;;;;;;;;;1.87;87.97;96096.41;5074927;28;1035;-48
2022/12/30 04:40:57;;;;;;;;;;;;;;;1.92;88.25;96104.06;5075065;28;1298;-49
2022/12/30 04:43:23;;;;;;;;;;;;;;;2.05;87.89;96094.53;5075148;28;1026;-48
2022/12/30 04:45:49;;;;;;;;;;;;;;;2.21;88.52;96110.34;5074949;28;1023;-48
2022/12/30 04:48:15;;;;;;;;;;;;;;;2.25;87.74;96111.88;5068636;28;1213;-48
2022/12/30 04:50:44;;;;;;;;;;;;;;;2.17;87.12;96111.47;5054609;28;1868;-48
2022/12/30 04:53:11;;;;;;;;;;;;;;;1.91;87.86;96118.19;5054748;28;1201;-48
2022/12/30 04:55:37;;;;;;;;;;;;;;;2.00;88.24;96114.19;5054548;28;1981;-48
2022/12/30 04:58:04;;;;;;;;;;;;;;;1.89;87.24;96120.06;5054915;28;1023;-48
2022/12/30 05:00:31;;;;;;;;;;;;;;;1.72;86.77;96119.19;5054728;28;1052;-48
2022/12/30 05:02:57;;;;;;;;;;;;;;;1.67;87.15;96126.50;5054730;28;1007;-48
2022/12/30 05:05:23;;;;;;;;;;;;;;;1.62;87.50;96122.41;5054474;28;1032;-48
2022/12/30 05:07:49;;;;;;;;;;;;;;;1.77;88.76;96118.94;5054528;28;1121;-48
2022/12/30 05:10:15;;;;;;;;;;;;;;;1.97;88.66;96120.47;5054729;28;978;-48
2022/12/30 05:12:41;;;;;;;;;;;;;;;2.00;87.64;96127.38;5054288;28;1383;-48
2022/12/30 05:15:07;;;;;;;;;;;;;;;1.92;87.54;96119.91;5054419;28;1910;-48
2022/12/30 05:17:33;;;;;;;;;;;;;;;1.84;86.72;96133.50;5054383;28;1293;-48
2022/12/30 05:19:59;;;;;;;;;;;;;;;1.87;87.19;96129.84;5054380;28;1016;-48
2022/12/30 05:22:25;;;;;;;;;;;;;;;1.67;87.10;96136.19;5054177;28;1092;-48
2022/12/30 05:27:36;;;;;;;;;;;;;;;1.47;88.76;96145.16;5054305;28;972;-48
2022/12/30 05:30:02;;;;;;;;;;;;;;;1.50;88.72;96140.59;5054084;28;1075;-48
2022/12/30 05:32:28;;;;;;;;;;;;;;;1.64;87.96;96144.28;5054124;28;1197;-48
2022/12/30 05:34:54;;;;;;;;;;;;;;;1.59;87.73;96144.50;5053938;28;1910;-48
2022/12/30 05:37:20;;;;;;;;;;;;;;;1.64;87.91;96145.13;5053879;28;1885;-48
2022/12/30 05:39:46;;;;;;;;;;;;;;;1.54;89.91;96144.75;5054170;28;1053;-48
2022/12/30 05:42:13;;;;;;;;;;;;;;;1.68;89.12;96141.38;5053837;28;1185;-47
2022/12/30 05:44:39;;;;;;;;;;;;;;;1.84;89.00;96151.09;5053777;28;1091;-48
2022/12/30 05:47:05;;;;;;;;;;;;;;;1.95;88.61;96149.59;5053935;28;974;-48
2022/12/30 05:49:31;;;;;;;;;;;;;;;2.05;87.93;96146.41;5070309;28;1233;-47
2022/12/30 05:51:57;;;;;;;;;;;;;;;1.97;87.20;96144.22;5073627;28;1107;-48
2022/12/30 05:54:23;;;;;;;;;;;;;;;1.82;86.18;96147.69;5073466;28;1990;-48
2022/12/30 05:56:49;;;;;;;;;;;;;;;1.81;86.96;96146.00;5073723;28;966;-48
2022/12/30 05:59:15;;;;;;;;;;;;;;;1.74;87.58;96151.59;5073772;28;1033;-48
2022/12/30 06:01:41;;;;;;;;;;;;;;;1.89;88.01;96149.06;5073665;28;969;-47
2022/12/30 06:04:07;;;;;;;;;;;;;;;1.80;86.26;96149.56;5073580;28;1098;-48
2022/12/30 06:06:33;;;;;;;;;;;;;;;1.56;87.47;96148.16;5073393;28;1033;-48
2022/12/30 06:08:59;;;;;;;;;;;;;;;1.52;88.85;96154.53;5073538;28;950;-48
2022/12/30 06:11:25;;;;;;;;;;;;;;;1.76;88.72;96159.41;5073596;28;977;-48
2022/12/30 06:13:51;;;;;;;;;;;;;;;1.90;88.26;96151.63;5073513;28;1997;-48
2022/12/30 06:16:17;;;;;;;;;;;;;;;1.97;88.06;96160.03;5073470;28;984;-48
2022/12/30 06:18:43;;;;;;;;;;;;;;;2.02;87.00;96165.06;5073369;28;989;-48
2022/12/30 06:21:09;;;;;;;;;;;;;;;2.01;86.52;96163.38;5073376;28;975;-48
2022/12/30 06:23:35;;;;;;;;;;;;;;;2.13;87.68;96171.47;5073220;28;1087;-48
2022/12/30 06:26:02;;;;;;;;;;;;;;;2.28;88.46;96167.13;5073472;28;954;-48
2022/12/30 06:28:28;;;;;;;;;;;;;;;2.34;88.87;96168.56;5073378;28;1000;-48
2022/12/30 06:30:54;;;;;;;;;;;;;;;2.31;88.37;96166.09;5073395;28;1033;-48
2022/12/30 06:33:23;;;;;;;;;;;;;;;2.19;86.70;96179.97;5073163;28;1068;-48
2022/12/30 06:35:49;;;;;;;;;;;;;;;2.29;87.40;96187.28;5073403;28;1902;-48
2022/12/30 06:38:15;;;;;;;;;;;;;;;2.40;86.95;96176.13;5077618;28;985;-48
2022/12/30 06:40:44;;;;;;;;;;;;;;;2.65;87.38;96183.50;5077468;28;965;-49
2022/12/30 06:43:10;;;;;;;;;;;;;;;3.06;84.67;96184.72;5077500;28;1023;-48
2022/12/30 06:45:36;;;;;;;;;;;;;;;3.19;84.47;96180.41;5077211;28;1071;-48
2022/12/30 06:48:03;;;;;;;;;;;;;;;3.23;84.19;96181.94;5072599;28;1154;-48
2022/12/30 06:50:29;;;;;;;;;;;;;;;3.40;83.60;96188.84;5057015;28;1025;-48
2022/12/30 06:52:55;;;;;;;;;;;;;;;5.10;76.68;96186.97;5057098;28;1028;-48
2022/12/30 06:55:21;;;;;;;;;;;;;;;6.63;69.63;96190.56;5057136;28;1988;-48
2022/12/30 06:57:48;;;;;;;;;;;;;;;7.24;67.15;96193.16;5057182;28;1069;-48
2022/12/30 07:00:14;;;;;;;;;;;;;;;7.36;65.69;96186.06;5056973;28;1028;-49
2022/12/30 07:02:40;;;;;;;;;;;;;;;8.02;64.14;96194.31;5056856;28;1008;-49
2022/12/30 07:05:06;;;;;;;;;;;;;;;8.52;61.77;96191.31;5056895;28;999;-48
2022/12/30 07:07:33;;;;;;;;;;;;;;;9.44;58.76;96191.75;5056748;28;1071;-48
2022/12/30 07:09:59;;;;;;;;;;;;;;;10.40;55.65;96197.88;5056963;28;1062;-49
2022/12/30 07:12:25;;;;;;;;;;;;;;;11.05;53.88;96198.31;5039021;28;1025;-48
2022/12/30 07:14:51;;;;;;;;;;;;;;;11.84;52.08;96208.06;5056725;28;1985;-49
2022/12/30 07:17:17;;;;;;;;;;;;;;;12.44;50.26;96204.28;5056682;28;992;-49
2022/12/30 07:19:46;;;;;;;;;;;;;;;12.47;50.12;96202.16;5056565;28;1052;-49
2022/12/30 07:22:12;;;;;;;;;;;;;;;13.05;49.57;96206.38;5056796;28;1021;-49
2022/12/30 07:24:38;;;;;;;;;;;;;;;13.76;47.78;96212.81;5056380;28;1020;-49
2022/12/30 07:27:04;;;;;;;;;;;;;;;14.81;45.50;96227.16;5056571;28;1028;-49
2022/12/30 07:29:30;;;;;;;;;;;;;;;14.74;45.02;96220.75;5056452;28;1026;-49
2022/12/30 07:31:57;;;;;;;;;;;;;;;13.94;46.65;96215.47;5056372;28;1180;-49
2022/12/30 07:34:23;;;;;;;;;;;;;;;12.22;51.61;96195.59;5056144;28;1993;-49
2022/12/30 07:36:49;;;;;;;;;;;;;;;10.45;57.29;96208.13;5056499;28;1019;-49
2022/12/30 07:39:15;;;;;;;;;;;;;;;8.92;63.00;96201.44;5056182;28;1024;-49
2022/12/30 07:45:12;;;;;;;;;;;;;;;6.62;74.53;96212.78;5036447;28;988;-48
2022/12/30 07:47:38;;;;;;;;;;;;;;;6.52;75.58;96219.72;5037056;28;1197;-49
2022/12/30 07:50:05;;;;;;;;;;;;;;;6.42;75.89;96216.88;5056040;28;1012;-48
2022/12/30 07:52:32;;;;;;;;;;;;;;;6.44;76.57;96223.78;5056010;28;1015;-48
2022/12/30 07:54:58;;;;;;;;;;;;;;;6.38;76.63;96212.75;5055982;28;1905;-48
2022/12/30 07:57:24;;;;;;;;;;;;;;;6.28;77.51;96209.91;5055852;28;1066;-48
2022/12/30 07:59:51;;;;;;;;;;;;;;;6.32;77.94;96224.66;5054911;28;970;-49
2022/12/30 08:02:17;;;;;;;;;;;;;;;6.24;78.75;96226.97;5055974;28;988;-48
2022/12/30 08:04:43;;;;;;;;;;;;;;;6.26;79.05;96227.75;5055844;28;984;-48
2022/12/30 08:07:09;;;;;;;;;;;;;;;6.30;78.96;96223.91;5055828;28;1068;-48
2022/12/30 08:09:35;;;;;;;;;;;;;;;6.50;78.17;96211.84;5071038;28;1055;-48
2022/12/30 08:12:01;;;;;;;;;;;;;;;6.51;78.44;96218.03;5054405;28;985;-48
2022/12/30 08:14:27;;;;;;;;;;;;;;;6.66;77.55;96211.63;5055668;28;1910;-48
2022/12/30 08:16:55;;;;;;;;;;;;;;;6.75;76.93;96221.56;5055545;28;2031;-48
2022/12/30 08:19:21;;;;;;;;;;;;;;;6.98;76.37;96219.03;5055507;28;1059;-48
2022/12/30 08:21:47;;;;;;;;;;;;;;;6.92;76.68;96214.16;5054363;28;1004;-48
2022/12/30 08:24:13;;;;;;;;;;;;;;;7.00;77.03;96212.66;5055432;28;973;-48
2022/12/30 08:26:39;;;;;;;;;;;;;;;7.16;75.90;96212.34;5055518;28;977;-48
2022/12/30 08:29:06;;;;;;;;;;;;;;;7.32;75.46;96203.22;5055334;28;1074;-48
2022/12/30 08:31:32;;;;;;;;;;;;;;;7.32;76.30;96205.88;5055390;28;945;-49
2022/12/30 08:33:58;;;;;;;;;;;;;;;7.30;76.87;96219.28;5055270;28;2007;-48
2022/12/30 08:36:25;;;;;;;;;;;;;;;7.46;75.89;96210.19;5055183;28;1008;-48
2022/12/30 08:38:52;;;;;;;;;;;;;;;7.24;76.42;96209.13;5055199;28;950;-48
2022/12/30 08:41:21;;;;;;;;;;;;;;;7.30;76.41;96206.00;5055278;28;960;-48
2022/12/30 08:43:47;;;;;;;;;;;;;;;7.37;75.80;96204.56;5063669;28;1397;-48
2022/12/30 08:46:14;;;;;;;;;;;;;;;7.46;75.41;96211.03;5075154;28;1073;-48
2022/12/30 08:48:40;;;;;;;;;;;;;;;7.52;75.92;96213.22;5065165;28;1185;-48
2022/12/30 08:51:07;;;;;;;;;;;;;;;7.80;74.81;96211.97;5054878;28;1830;-48
2022/12/30 08:53:33;;;;;;;;;;;;;;;7.97;74.24;96207.16;5054655;28;1368;-47
2022/12/30 08:55:59;;;;;;;;;;;;;;;8.25;72.87;96199.66;5054711;28;1021;-48
2022/12/30 08:58:25;;;;;;;;;;;;;;;8.59;71.90;96197.84;5054553;28;992;-49
2022/12/30 09:00:51;;;;;;;;;;;;;;;8.52;71.42;96186.84;5054465;28;1036;-48
2022/12/30 09:03:17;;;;;;;;;;;;;;;8.67;70.87;96186.56;5054714;28;1043;-48
2022/12/30 09:05:43;;;;;;;;;;;;;;;8.74;70.12;96190.44;5054707;28;1048;-48
2022/12/30 09:08:09;;;;;;;;;;;;;;;8.96;70.38;96181.53;5054579;28;1053;-48
2022/12/30 09:10:35;;;;;;;;;;;;;;;9.10;69.38;96181.22;5054416;28;974;-48
2022/12/30 09:13:01;;;;;;;;;;;;;;;9.35;69.14;96184.53;5054667;28;972;-49
2022/12/30 09:15:27;;;;;;;;;;;;;;;9.47;68.36;96182.66;5054205;28;1983;-49
2022/12/30 09:17:53;;;;;;;;;;;;;;;9.42;68.65;96183.03;5054482;28;1026;-49
2022/12/30 09:20:19;;;;;;;;;;;;;;;9.52;68.39;96183.97;5054241;28;1000;-48
2022/12/30 09:22:46;;;;;;;;;;;;;;;9.81;67.66;96183.31;5036637;28;1088;-49
2022/12/30 09:25:12;;;;;;;;;;;;;;;10.26;65.85;96180.34;5054165;28;1024;-48
2022/12/30 09:27:39;;;;;;;;;;;;;;;10.50;64.78;96182.69;5054223;28;984;-49
2022/12/30 09:30:05;;;;;;;;;;;;;;;10.33;65.20;96170.81;5054317;28;1011;-48
2022/12/30 09:32:31;;;;;;;;;;;;;;;10.63;63.48;96163.75;5054031;28;1017;-47
2022/12/30 09:34:57;;;;;;;;;;;;;;;10.83;63.77;96161.97;5054106;28;1910;-48
2022/12/30 09:37:24;;;;;;;;;;;;;;;10.98;63.46;96161.53;5053926;28;1005;-49
2022/12/30 09:39:50;;;;;;;;;;;;;;;11.14;62.42;96152.00;5053872;28;1087;-48
2022/12/30 09:45:01;;;;;;;;;;;;;;;11.42;60.56;96146.78;5053843;28;1109;-49
2022/12/30 09:47:33;;;;;;;;;;;;;;;11.64;59.86;96142.09;5053889;28;975;-49
2022/12/30 09:50:03;;;;;;;;;;;;;;;11.53;59.87;96138.59;5033833;28;1200;-48
2022/12/30 09:52:47;;;;;;;;;;;;;;;11.42;60.36;96135.22;5033686;28;1012;-48
2022/12/30 09:55:16;;;;;;;;;;;;;;;11.64;60.17;96126.88;5033894;28;1977;-49
2022/12/30 09:57:47;;;;;;;;;;;;;;;11.85;59.21;96132.03;5033768;28;972;-48
2022/12/30 10:00:18;;;;;;;;;;;;;;;12.04;58.07;96130.31;5033727;28;1048;-49
2022/12/30 10:03:03;;;;;;;;;;;;;;;12.31;58.56;96121.47;5033619;28;1025;-49
2022/12/30 10:05:48;;;;;;;;;;;;;;;12.14;58.17;96125.78;5033346;28;1846;-49
2022/12/30 10:08:14;;;;;;;;;;;;;;;12.41;58.35;96127.63;5033728;28;1046;-49
2022/12/30 10:10:44;;;;;;;;;;;;;;;12.38;57.46;96121.72;5032683;28;1024;-49
2022/12/30 10:13:22;;;;;;;;;;;;;;;12.83;57.59;96123.59;5033476;28;1049;-49
2022/12/30 10:15:53;;;;;;;;;;;;;;;13.05;55.87;96125.84;5033422;28;1906;-49
2022/12/30 10:18:28;;;;;;;;;;;;;;;13.21;55.12;96121.63;5016093;28;962;-49
2022/12/30 10:21:10;;;;;;;;;;;;;;;12.83;55.63;96104.81;5033632;28;966;-49
2022/12/30 10:23:45;;;;;;;;;;;;;;;12.68;55.67;96102.63;5033340;28;1036;-49
2022/12/30 10:26:13;;;;;;;;;;;;;;;13.06;56.56;96106.03;5033465;28;1149;-49
2022/12/30 10:28:48;;;;;;;;;;;;;;;13.27;54.89;96108.41;5033306;28;1608;-49
2022/12/30 10:31:19;;;;;;;;;;;;;;;13.19;54.88;96108.34;5033521;28;1050;-49
2022/12/30 10:33:49;;;;;;;;;;;;;;;13.10;54.10;96103.91;5033217;28;1914;-49
2022/12/30 10:36:35;;;;;;;;;;;;;;;13.36;54.07;96101.31;5033223;28;1320;-49
2022/12/30 10:39:11;;;;;;;;;;;;;;;13.42;54.18;96092.63;5026206;28;1841;-49
2022/12/30 10:41:40;;;;;;;;;;;;;;;13.24;54.13;96084.56;5033183;28;1040;-49
2022/12/30 10:44:38;;;;;;;;;;;;;;;13.41;54.60;96084.72;5033139;28;1090;-49
2022/12/30 10:47:16;;;;;;;;;;;;;;;13.81;53.70;96076.13;5010662;28;1255;-49
2022/12/30 10:49:42;;;;;;;;;;;;;;;13.97;52.79;96069.97;5069813;28;1279;-49
2022/12/30 10:52:10;;;;;;;;;;;;;;;13.78;52.60;96067.53;5073231;28;1038;-49
2022/12/30 10:54:36;;;;;;;;;;;;;;;13.44;53.12;96066.44;5073007;28;2033;-49
2022/12/30 10:57:03;;;;;;;;;;;;;;;13.56;54.06;96050.91;5073034;28;1020;-49
2022/12/30 10:59:30;;;;;;;;;;;;;;;13.68;54.12;96051.50;5073250;28;1020;-49
2022/12/30 11:02:10;;;;;;;;;;;;;;;13.65;53.59;96044.59;5072994;28;1182;-49
2022/12/30 11:04:38;;;;;;;;;;;;;;;13.55;53.99;96040.34;5055110;28;1024;-49
2022/12/30 11:07:06;;;;;;;;;;;;;;;13.77;54.39;96022.81;5073052;28;972;-49
2022/12/30 11:09:32;;;;;;;;;;;;;;;14.01;53.60;96039.06;5072862;28;995;-49
2022/12/30 11:14:57;;;;;;;;;;;;;;;13.80;54.90;96026.03;5072846;28;1902;-49
2022/12/30 11:17:25;;;;;;;;;;;;;;;13.85;54.30;96030.94;5072877;28;1072;-49
2022/12/30 11:19:54;;;;;;;;;;;;;;;14.04;54.00;96027.19;5072886;28;1012;-49
2022/12/30 11:22:21;;;;;;;;;;;;;;;14.03;53.48;96020.09;5073785;28;1019;-49
2022/12/30 11:24:58;;;;;;;;;;;;;;;14.22;53.54;96016.31;5076654;28;966;-49
2022/12/30 11:27:31;;;;;;;;;;;;;;;13.78;54.08;96011.91;5076347;28;1016;-49
2022/12/30 11:29:57;;;;;;;;;;;;;;;13.85;54.81;96015.66;5076543;28;980;-49
2022/12/30 11:32:23;;;;;;;;;;;;;;;13.89;54.53;96008.13;5076235;28;1056;-49
2022/12/30 11:34:49;;;;;;;;;;;;;;;13.88;53.96;96003.72;5076227;28;1926;-49
2022/12/30 11:37:30;;;;;;;;;;;;;;;14.01;54.42;95992.53;5076462;28;1032;-49
2022/12/30 11:39:58;;;;;;;;;;;;;;;13.79;54.89;95988.56;5076263;28;1086;-49
2022/12/30 11:42:31;;;;;;;;;;;;;;;13.50;54.79;95991.59;5076043;28;1862;-49
2022/12/30 11:45:16;;;;;;;;;;;;;;;13.29;55.92;95987.41;5075960;28;1075;-49
2022/12/30 11:47:43;;;;;;;;;;;;;;;13.25;56.69;95981.50;5074257;28;1153;-49
2022/12/30 11:50:15;;;;;;;;;;;;;;;13.47;55.91;95972.13;5056174;28;1041;-49
2022/12/30 11:52:41;;;;;;;;;;;;;;;13.58;55.76;95975.53;5055890;28;977;-49
2022/12/30 11:55:17;;;;;;;;;;;;;;;13.65;56.27;95981.94;5055924;28;1902;-49
2022/12/30 11:57:47;;;;;;;;;;;;;;;13.78;55.06;95981.50;5055797;28;1192;-49
2022/12/30 12:00:13;;;;;;;;;;;;;;;13.47;55.71;95982.03;5056103;28;1042;-49
2022/12/30 12:02:44;;;;;;;;;;;;;;;13.55;55.24;95978.53;5055658;28;1098;-49
2022/12/30 12:05:22;;;;;;;;;;;;;;;13.88;55.51;95979.53;5055900;28;1040;-49
2022/12/30 12:07:49;;;;;;;;;;;;;;;13.95;54.79;95975.19;5055675;28;1855;-49
2022/12/30 12:10:28;;;;;;;;;;;;;;;13.96;55.72;95976.03;5055548;28;1024;-50
2022/12/30 12:13:02;;;;;;;;;;;;;;;13.65;55.79;95973.88;5055789;28;972;-49
2022/12/30 12:15:32;;;;;;;;;;;;;;;13.83;55.75;95977.34;5055357;28;1979;-49
2022/12/30 12:18:01;;;;;;;;;;;;;;;13.59;56.37;95971.84;5055930;28;1020;-49
2022/12/30 12:20:34;;;;;;;;;;;;;;;13.48;57.20;95975.63;5055376;28;1034;-49
2022/12/30 12:23:00;;;;;;;;;;;;;;;13.39;56.46;95977.44;5055676;28;1136;-49
2022/12/30 12:25:33;;;;;;;;;;;;;;;13.34;57.18;95973.56;5055303;28;1033;-49
2022/12/30 12:27:59;;;;;;;;;;;;;;;13.35;57.19;95985.97;5055357;28;1008;-49
2022/12/30 12:30:31;;;;;;;;;;;;;;;13.50;56.96;95980.84;5055250;28;1032;-49
2022/12/30 12:33:01;;;;;;;;;;;;;;;13.54;57.25;95980.38;5055293;28;1060;-49
2022/12/30 12:35:27;;;;;;;;;;;;;;;13.53;57.17;95984.06;5054563;28;1995;-49
2022/12/30 12:38:08;;;;;;;;;;;;;;;13.54;57.43;95979.53;5055135;28;1103;-49
2022/12/30 12:40:40;;;;;;;;;;;;;;;13.43;57.49;95986.88;5054769;28;1091;-49
2022/12/30 12:43:06;;;;;;;;;;;;;;;13.32;57.92;95984.44;5055014;28;1244;-50
2022/12/30 12:45:35;;;;;;;;;;;;;;;13.27;57.84;95989.41;5055010;28;1096;-49
2022/12/30 12:48:07;;;;;;;;;;;;;;;13.20;58.37;95991.03;5054908;28;1170;-49
2022/12/30 12:50:39;;;;;;;;;;;;;;;13.14;58.92;95983.59;5055070;28;1033;-49
2022/12/30 12:53:23;;;;;;;;;;;;;;;13.12;58.91;95981.06;5055032;28;1061;-49
2022/12/30 12:55:49;;;;;;;;;;;;;;;12.91;59.05;95988.63;5054875;28;2012;-49
2022/12/30 12:58:15;;;;;;;;;;;;;;;12.82;59.17;95991.22;5054808;28;972;-49
2022/12/30 13:00:53;;;;;;;;;;;;;;;12.72;60.08;95993.16;5054868;28;1231;-49
2022/12/30 13:03:35;;;;;;;;;;;;;;;12.68;59.67;95997.97;5054872;28;990;-49
2022/12/30 13:06:14;;;;;;;;;;;;;;;12.63;60.16;95989.53;5054719;28;950;-49
2022/12/30 13:08:53;;;;;;;;;;;;;;;12.54;60.24;96001.22;5054587;28;1036;-49
2022/12/30 13:11:34;;;;;;;;;;;;;;;12.55;60.27;95999.38;5054500;28;1017;-49
2022/12/30 13:14:00;;;;;;;;;;;;;;;12.47;60.94;95992.09;5054327;28;1986;-49
2022/12/30 13:16:32;;;;;;;;;;;;;;;12.53;61.97;96001.38;5054436;28;1000;-50
2022/12/30 13:19:00;;;;;;;;;;;;;;;12.51;60.55;96006.88;5054331;28;1065;-49
2022/12/30 13:21:27;;;;;;;;;;;;;;;12.42;60.74;96003.25;5054413;28;1034;-49
2022/12/30 13:23:55;;;;;;;;;;;;;;;12.43;60.41;96004.13;5054038;28;1024;-49
2022/12/30 13:26:22;;;;;;;;;;;;;;;12.47;61.25;96008.19;5054291;28;1087;-49
2022/12/30 13:28:56;;;;;;;;;;;;;;;12.46;60.87;96018.06;5054138;28;1182;-49
2022/12/30 13:31:28;;;;;;;;;;;;;;;12.42;60.89;96016.66;5036458;28;989;-49
2022/12/30 13:33:57;;;;;;;;;;;;;;;12.39;61.13;96022.34;5054010;28;1981;-49
2022/12/30 13:36:32;;;;;;;;;;;;;;;12.36;60.99;96017.28;5054201;28;1026;-49
2022/12/30 13:39:05;;;;;;;;;;;;;;;12.36;61.52;96024.50;5054160;28;1242;-49
2022/12/30 13:41:54;;;;;;;;;;;;;;;12.34;61.42;96019.28;5053967;28;992;-49
2022/12/30 13:44:20;;;;;;;;;;;;;;;12.26;61.54;96021.88;5053446;28;2029;-49
2022/12/30 13:46:50;;;;;;;;;;;;;;;12.16;62.12;96021.94;5053678;28;1079;-49
2022/12/30 13:49:24;;;;;;;;;;;;;;;12.09;61.84;96019.00;5068620;28;1210;-49
2022/12/30 13:52:00;;;;;;;;;;;;;;;12.10;62.08;96012.66;5073730;28;1036;-49
2022/12/30 13:54:28;;;;;;;;;;;;;;;12.06;62.21;96010.41;5073567;28;1913;-49
2022/12/30 13:56:55;;;;;;;;;;;;;;;12.14;62.51;96018.56;5073589;28;1037;-49
2022/12/30 13:59:37;;;;;;;;;;;;;;;12.13;62.50;96016.84;5073797;28;1053;-49
2022/12/30 14:02:15;;;;;;;;;;;;;;;12.12;62.99;96020.50;5073560;28;1049;-49
2022/12/30 14:04:44;;;;;;;;;;;;;;;12.22;63.03;96024.00;5073528;28;1025;-49
2022/12/30 14:07:30;;;;;;;;;;;;;;;12.03;63.66;96022.28;5073499;28;1184;-49
2022/12/30 14:10:14;;;;;;;;;;;;;;;11.99;63.50;96015.53;5073472;28;2015;-49
2022/12/30 14:12:42;;;;;;;;;;;;;;;11.91;63.57;96021.63;5073560;28;946;-49